createdAt,value
2023-03-29T00:01:00.829Z,101008.56
2023-03-29T00:03:30.785Z,101006.91
2023-03-29T00:06:03.260Z,101001.63
2023-03-29T00:08:34.169Z,101010.75
2023-03-29T00:11:02.753Z,101006.44
2023-03-29T00:13:31.257Z,101006.63
2023-03-29T00:15:59.381Z,101005.78
2023-03-29T00:18:27.493Z,101006.84
2023-03-29T00:20:56.724Z,101018.53
2023-03-29T00:23:25.081Z,101017.78
2023-03-29T00:25:55.400Z,101009.03
2023-03-29T00:28:23.868Z,101014.59
2023-03-29T00:30:52.351Z,101017.28
2023-03-29T00:33:22.586Z,101022.88
2023-03-29T00:35:53.512Z,101029.16
2023-03-29T00:38:21.949Z,101028.41
2023-03-29T00:40:50.053Z,101029.56
2023-03-29T00:43:19.766Z,101020.75
2023-03-29T00:45:48.003Z,101021.69
2023-03-29T00:48:19.447Z,101025.31
2023-03-29T00:50:51.792Z,101021.88
2023-03-29T00:53:26.307Z,101028.31
2023-03-29T00:56:00.296Z,101022.19
2023-03-29T00:58:36.860Z,101026.00
2023-03-29T01:01:10.962Z,101017.00
2023-03-29T01:03:46.576Z,101004.75
2023-03-29T01:06:19.493Z,101005.72
2023-03-29T01:08:52.288Z,101005.13
2023-03-29T01:11:24.405Z,101006.84
2023-03-29T01:13:59.906Z,101004.34
2023-03-29T01:16:30.328Z,101004.34
2023-03-29T01:18:59.334Z,100998.31
2023-03-29T01:21:30.317Z,100998.31
2023-03-29T01:24:25.330Z,101000.16
2023-03-29T01:27:00.637Z,100994.00
2023-03-29T01:29:37.477Z,100995.91
2023-03-29T01:32:10.509Z,100991.63
2023-03-29T01:34:44.146Z,100992.66
2023-03-29T01:37:18.633Z,100984.72
2023-03-29T01:39:47.474Z,100982.91
2023-03-29T01:42:23.806Z,100987.47
2023-03-29T01:44:58.612Z,100978.78
2023-03-29T01:47:32.231Z,100986.81
2023-03-29T01:50:08.737Z,100972.66
2023-03-29T01:52:41.817Z,100975.44
2023-03-29T01:55:13.894Z,100979.22
2023-03-29T01:57:45.032Z,100980.97
2023-03-29T02:00:22.362Z,100979.34
2023-03-29T02:02:53.052Z,100983.84
2023-03-29T02:05:24.545Z,100986.72
2023-03-29T02:07:53.699Z,100990.34
2023-03-29T02:10:24.223Z,100990.50
2023-03-29T02:12:52.285Z,100995.88
2023-03-29T02:15:23.544Z,100996.06
2023-03-29T02:17:52.141Z,101001.44
2023-03-29T02:20:24.188Z,100992.63
2023-03-29T02:22:59.844Z,100993.69
2023-03-29T02:25:28.013Z,100999.03
2023-03-29T02:27:57.791Z,100994.69
2023-03-29T02:30:31.573Z,101001.97
2023-03-29T02:33:07.061Z,101005.63
2023-03-29T02:35:40.811Z,101005.72
2023-03-29T02:38:11.610Z,101012.03
2023-03-29T02:40:41.927Z,101002.34
2023-03-29T02:43:12.114Z,101004.25
2023-03-29T02:45:42.946Z,101005.09
2023-03-29T02:48:17.320Z,101004.44
2023-03-29T02:50:52.140Z,101002.72
2023-03-29T02:53:25.301Z,101001.16
2023-03-29T02:55:53.932Z,101014.50
2023-03-29T02:58:29.747Z,101004.78
2023-03-29T03:01:02.868Z,101002.13
2023-03-29T03:03:31.868Z,101013.75
2023-03-29T03:06:01.604Z,101013.19
2023-03-29T03:08:29.876Z,101012.38
2023-03-29T03:10:58.317Z,101013.19
2023-03-29T03:13:26.357Z,101020.34
2023-03-29T03:15:54.851Z,101024.06
2023-03-29T03:18:24.398Z,101019.75
2023-03-29T03:20:59.654Z,101025.97
2023-03-29T03:23:28.654Z,101021.66
2023-03-29T03:25:57.480Z,101021.75
2023-03-29T03:28:27.401Z,101024.53
2023-03-29T03:30:55.689Z,101023.72
2023-03-29T03:33:27.019Z,101025.53
2023-03-29T03:35:57.149Z,101023.06
2023-03-29T03:38:25.613Z,101034.72
2023-03-29T03:40:57.055Z,101025.97
2023-03-29T03:43:25.482Z,101026.84
2023-03-29T03:45:53.703Z,101027.78
2023-03-29T03:48:22.476Z,101032.28
2023-03-29T03:50:53.995Z,101029.69
2023-03-29T03:53:25.226Z,101033.34
2023-03-29T03:55:55.923Z,101021.94
2023-03-29T03:58:24.299Z,101030.84
2023-03-29T04:00:52.750Z,101024.72
2023-03-29T04:03:21.706Z,101030.94
2023-03-29T04:05:51.168Z,101029.19
2023-03-29T04:08:19.799Z,101029.38
2023-03-29T04:10:53.171Z,101040.94
2023-03-29T04:13:42.239Z,101036.53
2023-03-29T04:16:10.757Z,101034.91
2023-03-29T04:18:38.904Z,101034.91
2023-03-29T04:21:08.563Z,101035.09
2023-03-29T04:23:37.761Z,101031.59
2023-03-29T04:26:06.490Z,101033.34
2023-03-29T04:28:34.709Z,101038.88
2023-03-29T04:31:03.009Z,101032.66
2023-03-29T04:33:31.350Z,101034.56
2023-03-29T04:35:59.773Z,101032.66
2023-03-29T04:38:29.704Z,101037.16
2023-03-29T04:40:58.240Z,101044.13
2023-03-29T04:43:26.652Z,101037.66
2023-03-29T04:45:55.253Z,101025.72
2023-03-29T04:48:23.567Z,101023.66
2023-03-29T04:50:52.352Z,101025.72
2023-03-29T04:53:20.731Z,101029.78
2023-03-29T04:55:50.154Z,101028.28
2023-03-29T04:58:20.690Z,101033.25
2023-03-29T05:00:51.649Z,101037.09
2023-03-29T05:03:21.085Z,101037.41
2023-03-29T05:05:49.184Z,101048.44
2023-03-29T05:08:17.541Z,101040.88
2023-03-29T05:10:46.361Z,101035.72
2023-03-29T05:13:16.750Z,101034.31
2023-03-29T05:15:44.928Z,101043.81
2023-03-29T05:18:12.973Z,101034.63
2023-03-29T05:20:42.198Z,101034.44
2023-03-29T05:23:10.511Z,101039.63
2023-03-29T05:25:38.527Z,101042.84
2023-03-29T05:28:06.613Z,101042.69
2023-03-29T05:30:36.106Z,101038.69
2023-03-29T05:33:05.841Z,101039.03
2023-03-29T05:35:36.026Z,101035.59
2023-03-29T05:38:04.848Z,101030.59
2023-03-29T05:40:33.891Z,101041.03
2023-03-29T05:43:02.607Z,101032.81
2023-03-29T05:45:32.563Z,101037.16
2023-03-29T05:48:04.052Z,101044.13
2023-03-29T05:50:32.230Z,101052.09
2023-03-29T05:53:00.363Z,101052.94
2023-03-29T05:55:28.457Z,101050.38
2023-03-29T05:57:57.221Z,101056.59
2023-03-29T06:00:25.790Z,101059.38
2023-03-29T06:02:54.005Z,101053.16
2023-03-29T06:05:23.585Z,101055.03
2023-03-29T06:07:51.998Z,101056.00
2023-03-29T06:10:20.486Z,101056.13
2023-03-29T06:12:49.427Z,101065.09
2023-03-29T06:15:17.842Z,101059.06
2023-03-29T06:17:47.245Z,101060.78
2023-03-29T06:20:15.992Z,101059.16
2023-03-29T06:22:46.862Z,101059.25
2023-03-29T06:25:15.558Z,101063.84
2023-03-29T06:27:43.741Z,101064.81
2023-03-29T06:30:12.889Z,101065.97
2023-03-29T06:32:41.409Z,101067.88
2023-03-29T06:35:10.881Z,101072.22
2023-03-29T06:37:40.417Z,101071.50
2023-03-29T06:40:11.507Z,101076.97
2023-03-29T06:42:40.064Z,101078.91
2023-03-29T06:45:10.451Z,101083.50
2023-03-29T06:47:38.559Z,101086.19
2023-03-29T06:50:08.310Z,101085.44
2023-03-29T06:52:36.898Z,101086.38
2023-03-29T06:55:07.652Z,101082.06
2023-03-29T06:57:37.653Z,101073.25
2023-03-29T07:00:14.900Z,101073.25
2023-03-29T07:02:43.226Z,101082.34
2023-03-29T07:05:12.144Z,101087.81
2023-03-29T07:07:53.801Z,101089.81
2023-03-29T07:10:22.933Z,101087.88
2023-03-29T07:12:52.822Z,101093.34
2023-03-29T07:15:21.400Z,101094.41
2023-03-29T07:17:49.788Z,101098.81
2023-03-29T07:20:19.697Z,101105.81
2023-03-29T07:22:48.448Z,101096.81
2023-03-29T07:25:17.280Z,101106.09
2023-03-29T07:27:46.430Z,101110.16
2023-03-29T07:30:19.080Z,101107.75
2023-03-29T07:32:48.179Z,101102.88
2023-03-29T07:35:19.742Z,101109.63
2023-03-29T07:37:47.898Z,101124.47
2023-03-29T07:40:19.763Z,101116.13
2023-03-29T07:42:48.080Z,101115.06
2023-03-29T07:45:20.416Z,101115.72
2023-03-29T07:47:57.093Z,101122.81
2023-03-29T07:50:29.229Z,101118.31
2023-03-29T07:52:57.949Z,101109.28
2023-03-29T07:55:26.121Z,101112.88
2023-03-29T07:57:54.202Z,101116.31
2023-03-29T08:00:25.048Z,101117.28
2023-03-29T08:02:53.777Z,101121.78
2023-03-29T08:05:37.779Z,101122.66
2023-03-29T08:08:09.721Z,101122.53
2023-03-29T08:10:42.734Z,101116.41
2023-03-29T08:13:11.843Z,101111.97
2023-03-29T08:15:46.224Z,101108.44
2023-03-29T08:18:14.593Z,101111.13
2023-03-29T08:20:42.904Z,101109.41
2023-03-29T08:23:11.377Z,101105.00
2023-03-29T08:25:39.395Z,101105.94
2023-03-29T08:28:08.682Z,101107.69
2023-03-29T08:30:37.186Z,101098.75
2023-03-29T08:33:06.825Z,101102.41
2023-03-29T08:35:34.985Z,101076.44
2023-03-29T08:38:03.260Z,101099.81
2023-03-29T08:40:31.734Z,101094.47
2023-03-29T08:43:15.818Z,101100.69
2023-03-29T08:45:53.822Z,101099.81
2023-03-29T08:48:30.982Z,101098.97
2023-03-29T08:51:02.615Z,101102.50
2023-03-29T08:53:36.344Z,101102.63
2023-03-29T08:56:08.697Z,101092.72
2023-03-29T08:58:39.217Z,101087.47
2023-03-29T09:01:11.356Z,101091.00
2023-03-29T09:03:46.520Z,101080.53
2023-03-29T09:06:17.597Z,101078.56
2023-03-29T09:08:48.632Z,101086.59
2023-03-29T09:11:44.172Z,101075.06
2023-03-29T09:14:29.700Z,101074.13
2023-03-29T09:17:03.533Z,101064.34
2023-03-29T09:19:40.457Z,101060.78
2023-03-29T09:22:16.005Z,101052.84
2023-03-29T09:24:59.907Z,101058.97
2023-03-29T09:27:31.413Z,101060.91
2023-03-29T09:30:17.234Z,101058.09
2023-03-29T09:32:52.316Z,101054.47
2023-03-29T09:35:26.228Z,101051.88
2023-03-29T09:37:55.927Z,101053.59
2023-03-29T09:40:28.534Z,101051.72
2023-03-29T09:42:58.491Z,101045.38
2023-03-29T09:45:26.914Z,101051.59
2023-03-29T09:47:58.867Z,101046.13
2023-03-29T09:50:34.552Z,101044.31
2023-03-29T09:53:02.832Z,101037.09
2023-03-29T09:55:33.897Z,101036.91
2023-03-29T09:58:07.037Z,101035.19
2023-03-29T10:00:35.251Z,101035.00
2023-03-29T10:03:03.435Z,101031.34
2023-03-29T10:05:37.875Z,101021.47
2023-03-29T10:08:19.657Z,101026.75
2023-03-29T10:10:48.601Z,101017.72
2023-03-29T10:13:22.859Z,101013.09
2023-03-29T10:16:03.811Z,101018.25
2023-03-29T10:18:33.398Z,101006.59
2023-03-29T10:21:05.578Z,101001.09
2023-03-29T10:23:35.724Z,101004.44
2023-03-29T10:26:05.593Z,100994.44
2023-03-29T10:28:36.393Z,100997.94
2023-03-29T10:31:08.083Z,100989.66
2023-03-29T10:33:37.486Z,100987.72
2023-03-29T10:36:09.005Z,100984.81
2023-03-29T10:38:38.688Z,100986.34
2023-03-29T10:41:10.260Z,100986.13
2023-03-29T10:43:40.084Z,100983.22
2023-03-29T10:46:13.198Z,100977.69
2023-03-29T10:48:47.138Z,100979.19
2023-03-29T10:51:18.975Z,100972.66
2023-03-29T10:53:47.583Z,100976.94
2023-03-29T10:56:32.543Z,100969.34
2023-03-29T10:59:28.517Z,100968.16
2023-03-29T11:02:46.336Z,100971.28
2023-03-29T11:05:31.284Z,100966.44
2023-03-29T11:08:15.872Z,100958.06
2023-03-29T11:10:55.205Z,100956.78
2023-03-29T11:13:32.954Z,100952.06
2023-03-29T11:16:11.537Z,100956.06
2023-03-29T11:18:58.315Z,100952.19
2023-03-29T11:21:35.855Z,100949.28
2023-03-29T11:24:26.226Z,100950.56
2023-03-29T11:27:09.640Z,100946.50
2023-03-29T11:29:42.150Z,100946.03
2023-03-29T11:32:16.476Z,100946.59
2023-03-29T11:34:59.549Z,100952.47
2023-03-29T11:37:36.492Z,100946.91
2023-03-29T11:40:24.754Z,100937.63
2023-03-29T11:42:56.941Z,100925.13
2023-03-29T11:45:30.226Z,100928.34
2023-03-29T11:48:00.551Z,100930.59
2023-03-29T11:50:37.369Z,100919.59
2023-03-29T11:53:12.641Z,100924.78
2023-03-29T11:55:43.702Z,100918.19
2023-03-29T11:58:19.602Z,100916.78
2023-03-29T12:00:52.530Z,100909.19
2023-03-29T12:03:29.897Z,100908.88
2023-03-29T12:06:04.937Z,100907.53
2023-03-29T12:08:36.976Z,100913.47
2023-03-29T12:11:11.930Z,100904.94
2023-03-29T12:13:45.078Z,100898.31
2023-03-29T12:16:19.397Z,100899.84
2023-03-29T12:18:51.389Z,100886.88
2023-03-29T12:21:22.462Z,100880.28
2023-03-29T12:23:51.959Z,100883.63
2023-03-29T12:26:41.146Z,100883.50
2023-03-29T12:29:21.544Z,100878.59
2023-03-29T12:31:56.303Z,100881.09
2023-03-29T12:34:37.777Z,100878.13
2023-03-29T12:37:33.342Z,100878.66
2023-03-29T12:40:13.068Z,100869.47
2023-03-29T12:42:53.022Z,100857.84
2023-03-29T12:45:23.070Z,100860.88
2023-03-29T12:47:53.156Z,100854.44
2023-03-29T12:50:28.695Z,100860.56
2023-03-29T12:53:04.927Z,100853.94
2023-03-29T12:55:55.110Z,100848.31
2023-03-29T12:58:39.659Z,100852.47
2023-03-29T13:01:10.886Z,100864.00
2023-03-29T13:03:49.436Z,100868.91
2023-03-29T13:06:30.255Z,100865.25
2023-03-29T13:09:00.668Z,100861.56
2023-03-29T13:11:34.135Z,100847.94
2023-03-29T13:14:14.058Z,100842.56
2023-03-29T13:16:42.827Z,100848.59
2023-03-29T13:19:25.139Z,100849.19
2023-03-29T13:22:06.722Z,100832.88
2023-03-29T13:24:48.267Z,100842.47
2023-03-29T13:27:30.082Z,100841.09
2023-03-29T13:30:16.009Z,100832.88
2023-03-29T13:32:55.214Z,100827.25
2023-03-29T13:35:32.999Z,100830.94
2023-03-29T13:38:11.107Z,100827.38
2023-03-29T13:40:48.070Z,100827.47
2023-03-29T13:43:24.648Z,100821.00
2023-03-29T13:46:06.788Z,100821.00
2023-03-29T13:48:53.862Z,100809.84
2023-03-29T13:51:28.839Z,100808.84
2023-03-29T13:54:02.346Z,100804.19
2023-03-29T13:56:35.260Z,100790.47
2023-03-29T13:59:11.925Z,100788.53
2023-03-29T14:01:50.672Z,100803.47
2023-03-29T14:04:24.939Z,100798.69
2023-03-29T14:06:56.105Z,100807.66
2023-03-29T14:09:30.858Z,100796.13
2023-03-29T14:12:00.779Z,100802.97
2023-03-29T14:14:31.857Z,100791.19
2023-03-29T14:17:02.004Z,100792.78
2023-03-29T14:19:32.992Z,100793.63
2023-03-29T14:22:02.792Z,100790.72
2023-03-29T14:24:38.613Z,100784.31
2023-03-29T14:27:10.201Z,100786.03
2023-03-29T14:29:38.619Z,100781.50
2023-03-29T14:32:13.321Z,100775.09
2023-03-29T14:34:41.752Z,100785.06
2023-03-29T14:37:12.210Z,100781.63
2023-03-29T14:39:42.183Z,100781.75
2023-03-29T14:42:15.759Z,100781.88
2023-03-29T14:44:44.279Z,100785.53
2023-03-29T14:47:19.329Z,100774.16
2023-03-29T14:49:47.988Z,100778.69
2023-03-29T14:52:16.525Z,100775.28
2023-03-29T14:54:49.394Z,100770.09
2023-03-29T14:57:22.421Z,100769.38
2023-03-29T14:59:54.169Z,100774.06
2023-03-29T15:02:28.480Z,100770.72
2023-03-29T15:04:59.236Z,100771.72
2023-03-29T15:07:28.805Z,100773.66
2023-03-29T15:09:59.899Z,100769.38
2023-03-29T15:12:30.909Z,100764.22
2023-03-29T15:15:00.771Z,100768.03
2023-03-29T15:17:51.147Z,100761.03
2023-03-29T15:20:25.640Z,100776.63
2023-03-29T15:22:57.003Z,100767.81
2023-03-29T15:25:28.523Z,100757.25
2023-03-29T15:28:00.268Z,100752.97
2023-03-29T15:30:39.094Z,100765.72
2023-03-29T15:33:17.827Z,100758.84
2023-03-29T15:35:50.570Z,100755.53
2023-03-29T15:38:20.650Z,100754.69
2023-03-29T15:40:51.824Z,100757.50
2023-03-29T15:43:21.582Z,100750.53
2023-03-29T15:45:49.951Z,100745.38
2023-03-29T15:48:21.750Z,100740.22
2023-03-29T15:50:50.654Z,100742.19
2023-03-29T15:53:20.828Z,100744.25
2023-03-29T15:55:51.442Z,100743.53
2023-03-29T15:58:23.998Z,100735.72
2023-03-29T16:00:59.083Z,100729.72
2023-03-29T16:03:28.633Z,100727.97
2023-03-29T16:05:56.750Z,100736.31
2023-03-29T16:08:25.469Z,100732.88
2023-03-29T16:10:53.675Z,100733.13
2023-03-29T16:13:21.804Z,100728.81
2023-03-29T16:15:49.891Z,100729.94
2023-03-29T16:18:18.278Z,100736.44
2023-03-29T16:20:47.723Z,100714.25
2023-03-29T16:23:16.469Z,100719.88
2023-03-29T16:25:44.564Z,100728.09
2023-03-29T16:28:13.115Z,100725.66
2023-03-29T16:30:41.340Z,100721.34
2023-03-29T16:33:09.454Z,100719.63
2023-03-29T16:35:40.056Z,100710.81
2023-03-29T16:38:10.455Z,100714.75
2023-03-29T16:40:38.983Z,100708.59
2023-03-29T16:43:07.650Z,100712.47
2023-03-29T16:45:36.298Z,100714.44
2023-03-29T16:48:05.107Z,100707.34
2023-03-29T16:50:33.631Z,100715.63
2023-03-29T16:53:01.764Z,100715.75
2023-03-29T16:55:31.199Z,100723.97
2023-03-29T16:57:59.346Z,100722.50
2023-03-29T17:00:27.509Z,100719.06
2023-03-29T17:02:56.111Z,100720.28
2023-03-29T17:05:25.416Z,100711.47
2023-03-29T17:07:53.493Z,100709.63
2023-03-29T17:10:21.899Z,100713.19
2023-03-29T17:12:51.511Z,100705.97
2023-03-29T17:15:19.605Z,100704.50
2023-03-29T17:17:47.762Z,100704.88
2023-03-29T17:20:15.850Z,100700.59
2023-03-29T17:22:44.233Z,100709.09
2023-03-29T17:25:12.482Z,100714.75
2023-03-29T17:27:40.632Z,100712.31
2023-03-29T17:30:11.169Z,100713.50
2023-03-29T17:32:41.506Z,100718.19
2023-03-29T17:35:10.848Z,100723.22
2023-03-29T17:37:41.915Z,100725.41
2023-03-29T17:40:13.775Z,100725.03
2023-03-29T17:42:42.169Z,100733.72
2023-03-29T17:45:12.661Z,100725.50
2023-03-29T17:47:40.918Z,100729.69
2023-03-29T17:50:13.243Z,100728.72
2023-03-29T17:52:41.470Z,100733.25
2023-03-29T17:55:13.502Z,100731.41
2023-03-29T17:57:42.491Z,100737.66
2023-03-29T18:00:14.921Z,100734.09
2023-03-29T18:02:43.208Z,100732.66
2023-03-29T18:05:11.582Z,100744.38
2023-03-29T18:07:39.929Z,100741.69
2023-03-29T18:10:09.301Z,100740.97
2023-03-29T18:12:37.764Z,100740.22
2023-03-29T18:15:06.920Z,100747.59
2023-03-29T18:17:37.980Z,100753.22
2023-03-29T18:20:11.380Z,100756.88
2023-03-29T18:22:40.954Z,100758.00
2023-03-29T18:25:11.198Z,100760.09
2023-03-29T18:27:39.778Z,100760.09
2023-03-29T18:30:09.812Z,100766.69
2023-03-29T18:32:40.894Z,100765.22
2023-03-29T18:35:09.903Z,100766.22
2023-03-29T18:37:38.062Z,100767.41
2023-03-29T18:40:09.654Z,100767.66
2023-03-29T18:42:38.124Z,100771.34
2023-03-29T18:45:07.225Z,100768.03
2023-03-29T18:47:44.596Z,100761.28
2023-03-29T18:50:13.416Z,100756.03
2023-03-29T18:52:42.090Z,100759.81
2023-03-29T18:55:10.742Z,100765.41
2023-03-29T18:57:38.921Z,100766.53
2023-03-29T19:00:12.705Z,100767.75
2023-03-29T19:02:41.973Z,100767.00
2023-03-29T19:05:12.201Z,100773.44
2023-03-29T19:07:40.445Z,100768.31
2023-03-29T19:10:09.756Z,100765.84
2023-03-29T19:12:38.127Z,100767.78
2023-03-29T19:15:08.441Z,100764.50
2023-03-29T19:17:37.144Z,100771.84
2023-03-29T19:20:09.945Z,100773.75
2023-03-29T19:22:42.977Z,100778.53
2023-03-29T19:25:11.764Z,100767.28
2023-03-29T19:27:39.932Z,100766.41
2023-03-29T19:30:09.590Z,100779.00
2023-03-29T19:32:37.916Z,100773.84
2023-03-29T19:35:07.747Z,100776.66
2023-03-29T19:37:36.287Z,100775.06
2023-03-29T19:40:08.296Z,100780.66
2023-03-29T19:42:37.540Z,100773.56
2023-03-29T19:45:09.438Z,100777.03
2023-03-29T19:47:37.794Z,100778.50
2023-03-29T19:50:07.030Z,100775.56
2023-03-29T19:52:35.249Z,100768.22
2023-03-29T19:55:04.286Z,100769.97
2023-03-29T19:57:36.580Z,100765.19
2023-03-29T20:00:07.941Z,100762.50
2023-03-29T20:02:36.481Z,100759.69
2023-03-29T20:05:04.709Z,100760.22
2023-03-29T20:07:32.833Z,100762.28
2023-03-29T20:10:01.329Z,100765.06
2023-03-29T20:12:29.495Z,100765.81
2023-03-29T20:14:58.999Z,100761.94
2023-03-29T20:17:27.285Z,100754.69
2023-03-29T20:19:55.966Z,100750.03
2023-03-29T20:22:30.613Z,100757.13
2023-03-29T20:24:58.855Z,100748.16
2023-03-29T20:27:29.222Z,100758.13
2023-03-29T20:29:59.172Z,100748.38
2023-03-29T20:32:27.371Z,100743.50
2023-03-29T20:34:55.456Z,100746.06
2023-03-29T20:37:25.889Z,100739.88
2023-03-29T20:39:56.716Z,100737.69
2023-03-29T20:42:28.769Z,100741.59
2023-03-29T20:45:00.226Z,100745.00
2023-03-29T20:47:29.545Z,100737.63
2023-03-29T20:49:58.870Z,100736.66
2023-03-29T20:52:26.894Z,100736.66
2023-03-29T20:54:54.975Z,100742.91
2023-03-29T20:57:23.113Z,100734.94
2023-03-29T20:59:51.500Z,100744.03
2023-03-29T21:02:23.343Z,100738.88
2023-03-29T21:04:52.819Z,100738.88
2023-03-29T21:07:21.576Z,100732.03
2023-03-29T21:09:50.561Z,100732.03
2023-03-29T21:12:20.128Z,100726.88
2023-03-29T21:14:48.416Z,100731.44
2023-03-29T21:17:16.542Z,100727.13
2023-03-29T21:19:46.208Z,100725.69
2023-03-29T21:22:14.749Z,100728.50
2023-03-29T21:24:42.806Z,100731.34
2023-03-29T21:27:11.021Z,100727.16
2023-03-29T21:29:39.112Z,100732.69
2023-03-29T21:32:07.216Z,100731.25
2023-03-29T21:34:35.355Z,100726.94
2023-03-29T21:37:04.790Z,100723.50
2023-03-29T21:39:32.882Z,100725.50
2023-03-29T21:42:01.598Z,100721.31
2023-03-29T21:44:31.029Z,100720.56
2023-03-29T21:47:00.699Z,100726.09
2023-03-29T21:49:29.032Z,100714.56
2023-03-29T21:51:57.537Z,100727.31
2023-03-29T21:54:27.380Z,100718.50
2023-03-29T21:56:55.522Z,100722.28
2023-03-29T21:59:23.708Z,100722.56
2023-03-29T22:01:51.769Z,100716.44
2023-03-29T22:04:33.176Z,100719.50
2023-03-29T22:07:03.810Z,100718.63
2023-03-29T22:09:34.878Z,100721.72
2023-03-29T22:12:03.755Z,100717.44
2023-03-29T22:14:35.102Z,100723.78
2023-03-29T22:17:05.733Z,100718.66
2023-03-29T22:19:34.773Z,100724.19
2023-03-29T22:22:04.847Z,100722.72
2023-03-29T22:24:34.713Z,100716.47
2023-03-29T22:27:02.944Z,100716.69
2023-03-29T22:29:31.110Z,100715.25
2023-03-29T22:31:59.522Z,100725.16
2023-03-29T22:34:27.708Z,100718.44
2023-03-29T22:36:55.720Z,100713.03
2023-03-29T22:39:23.766Z,100720.38
2023-03-29T22:41:53.220Z,100719.66
2023-03-29T22:44:21.382Z,100725.19
2023-03-29T22:46:49.438Z,100734.34
2023-03-29T22:49:17.655Z,100735.44
2023-03-29T22:51:45.859Z,100740.00
2023-03-29T22:54:14.613Z,100745.63
2023-03-29T22:56:42.685Z,100735.06
2023-03-29T22:59:12.385Z,100738.75
2023-03-29T23:01:40.560Z,100731.66
2023-03-29T23:04:09.046Z,100728.22
2023-03-29T23:06:37.080Z,100732.88
2023-03-29T23:09:05.522Z,100726.75
2023-03-29T23:11:33.799Z,100729.69
2023-03-29T23:14:04.023Z,100735.19
2023-03-29T23:16:33.925Z,100736.31
2023-03-29T23:19:02.738Z,100731.91
2023-03-29T23:21:30.751Z,100731.13
2023-03-29T23:23:58.909Z,100735.78
2023-03-29T23:26:27.789Z,100733.09
2023-03-29T23:28:57.407Z,100728.81
2023-03-29T23:31:25.946Z,100728.22
2023-03-29T23:33:55.693Z,100732.63
2023-03-29T23:36:27.041Z,100731.09
2023-03-29T23:38:55.753Z,100726.69
2023-03-29T23:41:28.311Z,100719.72
2023-03-29T23:43:57.742Z,100724.25
2023-03-29T23:46:26.361Z,100724.38
2023-03-29T23:48:56.756Z,100735.25
2023-03-29T23:51:28.892Z,100727.41
2023-03-29T23:54:00.771Z,100734.63
2023-03-29T23:56:29.082Z,100732.06
2023-03-29T23:58:57.335Z,100723.38
